sensor_id;sensor_type;location;lat;lon;timestamp;P1;durP1;ratioP1;P2;durP2;ratioP2
29202;SDS011;16245;51.170;4.884;2023-02-24T00:01:12;22.30;;;6.55;;
29202;SDS011;16245;51.170;4.884;2023-02-24T00:03:42;26.35;;;5.65;;
29202;SDS011;16245;51.170;4.884;2023-02-24T00:06:09;20.27;;;4.47;;
29202;SDS011;16245;51.170;4.884;2023-02-24T00:08:39;13.48;;;4.07;;
29202;SDS011;16245;51.170;4.884;2023-02-24T00:11:07;18.88;;;4.70;;
29202;SDS011;16245;51.170;4.884;2023-02-24T00:13:34;19.55;;;4.47;;
29202;SDS011;16245;51.170;4.884;2023-02-24T00:16:00;21.52;;;4.80;;
29202;SDS011;16245;51.170;4.884;2023-02-24T00:18:27;17.38;;;4.57;;
29202;SDS011;16245;51.170;4.884;2023-02-24T00:20:53;18.40;;;4.75;;
29202;SDS011;16245;51.170;4.884;2023-02-24T00:23:22;23.17;;;4.50;;
29202;SDS011;16245;51.170;4.884;2023-02-24T00:25:48;21.17;;;5.80;;
29202;SDS011;16245;51.170;4.884;2023-02-24T00:28:22;19.90;;;5.22;;
29202;SDS011;16245;51.170;4.884;2023-02-24T00:30:47;25.38;;;5.72;;
29202;SDS011;16245;51.170;4.884;2023-02-24T00:33:13;20.58;;;5.00;;
29202;SDS011;16245;51.170;4.884;2023-02-24T00:35:38;26.70;;;5.20;;
29202;SDS011;16245;51.170;4.884;2023-02-24T00:38:04;19.67;;;4.55;;
29202;SDS011;16245;51.170;4.884;2023-02-24T00:40:30;25.98;;;5.43;;
29202;SDS011;16245;51.170;4.884;2023-02-24T00:42:55;19.38;;;4.75;;
29202;SDS011;16245;51.170;4.884;2023-02-24T00:45:22;23.52;;;5.35;;
29202;SDS011;16245;51.170;4.884;2023-02-24T00:47:47;15.98;;;3.75;;
29202;SDS011;16245;51.170;4.884;2023-02-24T00:50:13;21.40;;;5.28;;
29202;SDS011;16245;51.170;4.884;2023-02-24T00:52:39;12.90;;;4.15;;
29202;SDS011;16245;51.170;4.884;2023-02-24T00:55:04;22.70;;;4.20;;
29202;SDS011;16245;51.170;4.884;2023-02-24T00:57:39;21.00;;;6.18;;
29202;SDS011;16245;51.170;4.884;2023-02-24T01:00:05;22.52;;;4.80;;
29202;SDS011;16245;51.170;4.884;2023-02-24T01:02:37;17.55;;;4.03;;
29202;SDS011;16245;51.170;4.884;2023-02-24T01:05:03;21.90;;;5.25;;
29202;SDS011;16245;51.170;4.884;2023-02-24T01:07:30;19.38;;;4.30;;
29202;SDS011;16245;51.170;4.884;2023-02-24T01:09:55;21.88;;;5.00;;
29202;SDS011;16245;51.170;4.884;2023-02-24T01:12:21;25.95;;;4.60;;
29202;SDS011;16245;51.170;4.884;2023-02-24T01:15:06;18.15;;;4.32;;
29202;SDS011;16245;51.170;4.884;2023-02-24T01:17:34;21.20;;;4.45;;
29202;SDS011;16245;51.170;4.884;2023-02-24T01:20:01;18.35;;;4.35;;
29202;SDS011;16245;51.170;4.884;2023-02-24T01:22:39;22.23;;;4.30;;
29202;SDS011;16245;51.170;4.884;2023-02-24T01:25:04;26.73;;;5.95;;
29202;SDS011;16245;51.170;4.884;2023-02-24T01:27:31;19.77;;;4.70;;
29202;SDS011;16245;51.170;4.884;2023-02-24T01:29:57;21.38;;;5.03;;
29202;SDS011;16245;51.170;4.884;2023-02-24T01:32:25;24.48;;;5.15;;
29202;SDS011;16245;51.170;4.884;2023-02-24T01:34:52;25.33;;;5.18;;
29202;SDS011;16245;51.170;4.884;2023-02-24T01:37:18;17.55;;;4.30;;
29202;SDS011;16245;51.170;4.884;2023-02-24T01:39:44;20.38;;;4.72;;
29202;SDS011;16245;51.170;4.884;2023-02-24T01:42:12;21.58;;;4.78;;
29202;SDS011;16245;51.170;4.884;2023-02-24T01:47:07;24.20;;;4.80;;
29202;SDS011;16245;51.170;4.884;2023-02-24T01:49:35;26.58;;;5.57;;
29202;SDS011;16245;51.170;4.884;2023-02-24T01:52:18;22.48;;;4.72;;
29202;SDS011;16245;51.170;4.884;2023-02-24T01:54:58;24.60;;;5.00;;
29202;SDS011;16245;51.170;4.884;2023-02-24T01:57:33;15.95;;;4.72;;
29202;SDS011;16245;51.170;4.884;2023-02-24T02:00:03;19.15;;;4.28;;
29202;SDS011;16245;51.170;4.884;2023-02-24T02:02:56;19.58;;;4.95;;
29202;SDS011;16245;51.170;4.884;2023-02-24T02:05:24;26.73;;;5.55;;
29202;SDS011;16245;51.170;4.884;2023-02-24T02:07:50;24.13;;;5.30;;
29202;SDS011;16245;51.170;4.884;2023-02-24T02:10:17;19.65;;;4.43;;
29202;SDS011;16245;51.170;4.884;2023-02-24T02:12:43;22.40;;;5.43;;
29202;SDS011;16245;51.170;4.884;2023-02-24T02:15:13;18.70;;;4.13;;
29202;SDS011;16245;51.170;4.884;2023-02-24T02:25:51;22.75;;;4.90;;
29202;SDS011;16245;51.170;4.884;2023-02-24T02:31:24;15.38;;;3.78;;
29202;SDS011;16245;51.170;4.884;2023-02-24T02:37:02;21.00;;;4.18;;
29202;SDS011;16245;51.170;4.884;2023-02-24T02:39:47;17.40;;;4.03;;
29202;SDS011;16245;51.170;4.884;2023-02-24T02:42:44;15.57;;;4.70;;
29202;SDS011;16245;51.170;4.884;2023-02-24T02:48:16;14.05;;;3.97;;
29202;SDS011;16245;51.170;4.884;2023-02-24T02:50:53;18.88;;;4.18;;
29202;SDS011;16245;51.170;4.884;2023-02-24T02:53:50;17.38;;;4.18;;
29202;SDS011;16245;51.170;4.884;2023-02-24T02:56:32;16.77;;;4.18;;
29202;SDS011;16245;51.170;4.884;2023-02-24T02:59:01;12.75;;;3.80;;
29202;SDS011;16245;51.170;4.884;2023-02-24T03:01:30;19.58;;;4.40;;
29202;SDS011;16245;51.170;4.884;2023-02-24T03:04:02;16.67;;;3.33;;
29202;SDS011;16245;51.170;4.884;2023-02-24T03:06:34;15.10;;;4.50;;
29202;SDS011;16245;51.170;4.884;2023-02-24T03:09:08;15.48;;;4.00;;
29202;SDS011;16245;51.170;4.884;2023-02-24T03:12:22;16.42;;;4.15;;
29202;SDS011;16245;51.170;4.884;2023-02-24T03:14:33;14.93;;;3.60;;
29202;SDS011;16245;51.170;4.884;2023-02-24T03:17:05;12.57;;;4.05;;
29202;SDS011;16245;51.170;4.884;2023-02-24T03:19:46;16.15;;;3.75;;
29202;SDS011;16245;51.170;4.884;2023-02-24T03:22:32;15.77;;;4.65;;
29202;SDS011;16245;51.170;4.884;2023-02-24T03:25:01;23.15;;;3.97;;
29202;SDS011;16245;51.170;4.884;2023-02-24T03:27:41;20.58;;;4.75;;
29202;SDS011;16245;51.170;4.884;2023-02-24T03:32:50;15.70;;;5.53;;
29202;SDS011;16245;51.170;4.884;2023-02-24T03:35:21;11.20;;;3.85;;
29202;SDS011;16245;51.170;4.884;2023-02-24T03:37:49;16.67;;;3.97;;
29202;SDS011;16245;51.170;4.884;2023-02-24T03:40:17;21.17;;;4.55;;
29202;SDS011;16245;51.170;4.884;2023-02-24T03:42:46;24.48;;;4.50;;
29202;SDS011;16245;51.170;4.884;2023-02-24T03:45:15;15.48;;;3.50;;
29202;SDS011;16245;51.170;4.884;2023-02-24T03:47:41;12.52;;;3.40;;
29202;SDS011;16245;51.170;4.884;2023-02-24T03:50:19;14.18;;;3.88;;
29202;SDS011;16245;51.170;4.884;2023-02-24T04:06:43;15.07;;;4.30;;
29202;SDS011;16245;51.170;4.884;2023-02-24T04:09:28;13.95;;;3.63;;
29202;SDS011;16245;51.170;4.884;2023-02-24T04:12:20;19.05;;;4.47;;
29202;SDS011;16245;51.170;4.884;2023-02-24T04:17:19;17.42;;;5.05;;
29202;SDS011;16245;51.170;4.884;2023-02-24T04:19:52;22.90;;;5.18;;
29202;SDS011;16245;51.170;4.884;2023-02-24T04:22:21;17.67;;;4.43;;
29202;SDS011;16245;51.170;4.884;2023-02-24T04:24:51;20.88;;;4.43;;
29202;SDS011;16245;51.170;4.884;2023-02-24T04:27:20;13.48;;;3.55;;
29202;SDS011;16245;51.170;4.884;2023-02-24T04:29:49;13.20;;;3.35;;
29202;SDS011;16245;51.170;4.884;2023-02-24T04:32:19;14.02;;;4.07;;
29202;SDS011;16245;51.170;4.884;2023-02-24T04:34:47;17.83;;;4.07;;
29202;SDS011;16245;51.170;4.884;2023-02-24T04:37:13;8.82;;;4.13;;
29202;SDS011;16245;51.170;4.884;2023-02-24T04:39:39;14.50;;;4.18;;
29202;SDS011;16245;51.170;4.884;2023-02-24T04:42:05;13.73;;;4.10;;
29202;SDS011;16245;51.170;4.884;2023-02-24T04:44:31;17.75;;;4.80;;
29202;SDS011;16245;51.170;4.884;2023-02-24T04:46:57;17.30;;;4.38;;
29202;SDS011;16245;51.170;4.884;2023-02-24T04:49:24;10.48;;;3.35;;
29202;SDS011;16245;51.170;4.884;2023-02-24T04:51:50;13.05;;;3.67;;
29202;SDS011;16245;51.170;4.884;2023-02-24T04:54:17;16.90;;;4.55;;
29202;SDS011;16245;51.170;4.884;2023-02-24T04:56:48;15.73;;;5.38;;
29202;SDS011;16245;51.170;4.884;2023-02-24T04:59:15;22.70;;;4.78;;
29202;SDS011;16245;51.170;4.884;2023-02-24T05:01:42;15.85;;;5.03;;
29202;SDS011;16245;51.170;4.884;2023-02-24T05:04:09;20.63;;;4.85;;
29202;SDS011;16245;51.170;4.884;2023-02-24T05:06:36;16.27;;;5.05;;
29202;SDS011;16245;51.170;4.884;2023-02-24T05:09:07;23.25;;;4.75;;
29202;SDS011;16245;51.170;4.884;2023-02-24T05:11:41;19.83;;;3.80;;
29202;SDS011;16245;51.170;4.884;2023-02-24T05:14:09;12.73;;;3.75;;
29202;SDS011;16245;51.170;4.884;2023-02-24T05:16:42;14.15;;;4.00;;
29202;SDS011;16245;51.170;4.884;2023-02-24T05:19:09;12.25;;;3.90;;
29202;SDS011;16245;51.170;4.884;2023-02-24T05:21:58;16.33;;;4.10;;
29202;SDS011;16245;51.170;4.884;2023-02-24T05:24:24;23.30;;;4.47;;
29202;SDS011;16245;51.170;4.884;2023-02-24T05:26:53;17.23;;;4.13;;
29202;SDS011;16245;51.170;4.884;2023-02-24T05:29:31;14.43;;;4.60;;
29202;SDS011;16245;51.170;4.884;2023-02-24T05:31:58;21.40;;;4.90;;
29202;SDS011;16245;51.170;4.884;2023-02-24T05:34:25;11.65;;;4.13;;
29202;SDS011;16245;51.170;4.884;2023-02-24T05:36:54;17.92;;;4.28;;
29202;SDS011;16245;51.170;4.884;2023-02-24T05:39:21;17.52;;;3.78;;
29202;SDS011;16245;51.170;4.884;2023-02-24T05:41:49;15.95;;;4.95;;
29202;SDS011;16245;51.170;4.884;2023-02-24T05:44:19;11.90;;;4.10;;
29202;SDS011;16245;51.170;4.884;2023-02-24T05:46:48;19.52;;;4.65;;
29202;SDS011;16245;51.170;4.884;2023-02-24T05:49:20;17.00;;;4.85;;
29202;SDS011;16245;51.170;4.884;2023-02-24T05:51:50;14.30;;;4.07;;
29202;SDS011;16245;51.170;4.884;2023-02-24T05:54:27;13.93;;;3.53;;
29202;SDS011;16245;51.170;4.884;2023-02-24T05:56:57;19.58;;;3.85;;
29202;SDS011;16245;51.170;4.884;2023-02-24T05:59:25;16.17;;;3.90;;
29202;SDS011;16245;51.170;4.884;2023-02-24T06:01:56;15.65;;;4.32;;
29202;SDS011;16245;51.170;4.884;2023-02-24T06:04:24;13.98;;;3.88;;
29202;SDS011;16245;51.170;4.884;2023-02-24T06:07:13;19.10;;;4.13;;
29202;SDS011;16245;51.170;4.884;2023-02-24T06:09:48;16.25;;;3.85;;
29202;SDS011;16245;51.170;4.884;2023-02-24T06:12:18;19.83;;;4.10;;
29202;SDS011;16245;51.170;4.884;2023-02-24T06:14:45;12.30;;;3.42;;
29202;SDS011;16245;51.170;4.884;2023-02-24T06:17:12;13.80;;;3.80;;
29202;SDS011;16245;51.170;4.884;2023-02-24T06:19:40;12.35;;;4.10;;
29202;SDS011;16245;51.170;4.884;2023-02-24T06:22:14;16.48;;;4.35;;
29202;SDS011;16245;51.170;4.884;2023-02-24T06:24:43;17.23;;;4.43;;
29202;SDS011;16245;51.170;4.884;2023-02-24T06:27:10;18.50;;;4.20;;
29202;SDS011;16245;51.170;4.884;2023-02-24T06:29:41;15.40;;;4.15;;
29202;SDS011;16245;51.170;4.884;2023-02-24T06:32:08;22.02;;;5.10;;
29202;SDS011;16245;51.170;4.884;2023-02-24T06:34:37;16.77;;;4.10;;
29202;SDS011;16245;51.170;4.884;2023-02-24T06:37:04;19.88;;;4.57;;
29202;SDS011;16245;51.170;4.884;2023-02-24T06:39:31;16.33;;;4.32;;
29202;SDS011;16245;51.170;4.884;2023-02-24T06:41:58;15.55;;;4.40;;
29202;SDS011;16245;51.170;4.884;2023-02-24T06:44:32;12.80;;;3.85;;
29202;SDS011;16245;51.170;4.884;2023-02-24T06:46:59;12.65;;;3.53;;
29202;SDS011;16245;51.170;4.884;2023-02-24T06:49:25;12.10;;;3.25;;
29202;SDS011;16245;51.170;4.884;2023-02-24T06:51:52;14.15;;;4.90;;
29202;SDS011;16245;51.170;4.884;2023-02-24T06:54:21;15.88;;;3.83;;
29202;SDS011;16245;51.170;4.884;2023-02-24T06:56:49;13.00;;;4.07;;
29202;SDS011;16245;51.170;4.884;2023-02-24T06:59:15;18.15;;;5.13;;
29202;SDS011;16245;51.170;4.884;2023-02-24T07:01:48;13.63;;;5.18;;
29202;SDS011;16245;51.170;4.884;2023-02-24T07:04:15;15.00;;;4.82;;
29202;SDS011;16245;51.170;4.884;2023-02-24T07:06:41;15.57;;;4.70;;
29202;SDS011;16245;51.170;4.884;2023-02-24T07:09:10;16.17;;;5.28;;
29202;SDS011;16245;51.170;4.884;2023-02-24T07:11:39;19.70;;;5.40;;
29202;SDS011;16245;51.170;4.884;2023-02-24T07:14:07;16.80;;;6.07;;
29202;SDS011;16245;51.170;4.884;2023-02-24T07:16:35;18.60;;;5.40;;
29202;SDS011;16245;51.170;4.884;2023-02-24T07:19:04;21.52;;;5.47;;
29202;SDS011;16245;51.170;4.884;2023-02-24T07:21:35;13.75;;;5.43;;
29202;SDS011;16245;51.170;4.884;2023-02-24T07:24:06;16.50;;;6.05;;
29202;SDS011;16245;51.170;4.884;2023-02-24T07:26:33;18.63;;;5.82;;
29202;SDS011;16245;51.170;4.884;2023-02-24T07:28:59;17.60;;;6.22;;
29202;SDS011;16245;51.170;4.884;2023-02-24T07:31:28;25.50;;;7.20;;
29202;SDS011;16245;51.170;4.884;2023-02-24T07:33:58;20.33;;;5.70;;
29202;SDS011;16245;51.170;4.884;2023-02-24T07:36:26;14.00;;;4.88;;
29202;SDS011;16245;51.170;4.884;2023-02-24T07:38:54;19.13;;;5.25;;
29202;SDS011;16245;51.170;4.884;2023-02-24T07:41:26;11.15;;;4.57;;
29202;SDS011;16245;51.170;4.884;2023-02-24T07:43:53;10.80;;;4.60;;
29202;SDS011;16245;51.170;4.884;2023-02-24T07:46:20;17.42;;;5.32;;
29202;SDS011;16245;51.170;4.884;2023-02-24T07:48:49;15.75;;;5.20;;
29202;SDS011;16245;51.170;4.884;2023-02-24T07:51:17;16.00;;;4.97;;
29202;SDS011;16245;51.170;4.884;2023-02-24T07:53:47;25.80;;;5.93;;
29202;SDS011;16245;51.170;4.884;2023-02-24T07:56:18;18.23;;;5.13;;
29202;SDS011;16245;51.170;4.884;2023-02-24T07:58:51;17.52;;;4.80;;
29202;SDS011;16245;51.170;4.884;2023-02-24T08:01:23;16.85;;;5.15;;
29202;SDS011;16245;51.170;4.884;2023-02-24T08:03:53;13.88;;;5.32;;
29202;SDS011;16245;51.170;4.884;2023-02-24T08:06:21;14.80;;;5.18;;
29202;SDS011;16245;51.170;4.884;2023-02-24T08:08:51;15.70;;;5.40;;
29202;SDS011;16245;51.170;4.884;2023-02-24T08:11:40;15.95;;;4.93;;
29202;SDS011;16245;51.170;4.884;2023-02-24T08:14:10;13.82;;;4.97;;
29202;SDS011;16245;51.170;4.884;2023-02-24T08:16:42;15.10;;;4.40;;
29202;SDS011;16245;51.170;4.884;2023-02-24T08:19:11;19.70;;;4.55;;
29202;SDS011;16245;51.170;4.884;2023-02-24T08:21:41;14.32;;;4.25;;
29202;SDS011;16245;51.170;4.884;2023-02-24T08:24:29;20.63;;;4.50;;
29202;SDS011;16245;51.170;4.884;2023-02-24T08:26:59;15.05;;;4.53;;
29202;SDS011;16245;51.170;4.884;2023-02-24T08:29:36;19.83;;;4.80;;
29202;SDS011;16245;51.170;4.884;2023-02-24T08:32:25;21.58;;;4.53;;
29202;SDS011;16245;51.170;4.884;2023-02-24T08:34:52;13.27;;;4.53;;
29202;SDS011;16245;51.170;4.884;2023-02-24T08:37:21;17.90;;;4.57;;
29202;SDS011;16245;51.170;4.884;2023-02-24T08:39:48;13.77;;;4.72;;
29202;SDS011;16245;51.170;4.884;2023-02-24T08:42:18;16.58;;;5.15;;
29202;SDS011;16245;51.170;4.884;2023-02-24T08:44:44;12.63;;;3.70;;
29202;SDS011;16245;51.170;4.884;2023-02-24T08:47:14;16.38;;;4.15;;
29202;SDS011;16245;51.170;4.884;2023-02-24T08:49:44;17.63;;;4.30;;
29202;SDS011;16245;51.170;4.884;2023-02-24T08:52:13;20.83;;;5.13;;
29202;SDS011;16245;51.170;4.884;2023-02-24T08:54:39;15.48;;;4.85;;
29202;SDS011;16245;51.170;4.884;2023-02-24T08:57:12;18.33;;;5.15;;
29202;SDS011;16245;51.170;4.884;2023-02-24T08:59:39;21.13;;;4.47;;
29202;SDS011;16245;51.170;4.884;2023-02-24T09:02:17;14.95;;;4.03;;
29202;SDS011;16245;51.170;4.884;2023-02-24T09:04:51;26.33;;;4.53;;
29202;SDS011;16245;51.170;4.884;2023-02-24T09:07:24;14.05;;;4.70;;
29202;SDS011;16245;51.170;4.884;2023-02-24T09:10:03;14.30;;;3.85;;
29202;SDS011;16245;51.170;4.884;2023-02-24T09:12:35;15.48;;;4.18;;
29202;SDS011;16245;51.170;4.884;2023-02-24T09:15:05;11.45;;;3.45;;
29202;SDS011;16245;51.170;4.884;2023-02-24T09:17:32;19.42;;;4.28;;
29202;SDS011;16245;51.170;4.884;2023-02-24T09:20:25;13.15;;;4.65;;
29202;SDS011;16245;51.170;4.884;2023-02-24T09:23:11;21.95;;;4.10;;
29202;SDS011;16245;51.170;4.884;2023-02-24T09:25:44;18.98;;;4.68;;
29202;SDS011;16245;51.170;4.884;2023-02-24T09:28:15;18.77;;;4.22;;
29202;SDS011;16245;51.170;4.884;2023-02-24T09:30:58;14.40;;;3.67;;
29202;SDS011;16245;51.170;4.884;2023-02-24T09:33:29;13.82;;;4.13;;
29202;SDS011;16245;51.170;4.884;2023-02-24T09:36:12;15.27;;;3.40;;
29202;SDS011;16245;51.170;4.884;2023-02-24T09:44:38;14.60;;;3.08;;
29202;SDS011;16245;51.170;4.884;2023-02-24T09:52:43;13.57;;;3.75;;
29202;SDS011;16245;51.170;4.884;2023-02-24T10:03:30;11.48;;;3.55;;
29202;SDS011;16245;51.170;4.884;2023-02-24T10:06:24;11.55;;;3.08;;
29202;SDS011;16245;51.170;4.884;2023-02-24T10:09:02;17.23;;;4.13;;
29202;SDS011;16245;51.170;4.884;2023-02-24T10:11:37;10.55;;;3.63;;
29202;SDS011;16245;51.170;4.884;2023-02-24T10:14:19;16.52;;;3.10;;
29202;SDS011;16245;51.170;4.884;2023-02-24T10:16:55;13.48;;;4.32;;
29202;SDS011;16245;51.170;4.884;2023-02-24T10:19:42;13.70;;;3.25;;
29202;SDS011;16245;51.170;4.884;2023-02-24T10:24:52;17.70;;;3.45;;
29202;SDS011;16245;51.170;4.884;2023-02-24T10:28:40;9.45;;;3.22;;
29202;SDS011;16245;51.170;4.884;2023-02-24T10:33:27;13.93;;;4.10;;
29202;SDS011;16245;51.170;4.884;2023-02-24T10:36:09;16.10;;;3.60;;
29202;SDS011;16245;51.170;4.884;2023-02-24T10:38:41;15.57;;;3.55;;
29202;SDS011;16245;51.170;4.884;2023-02-24T10:41:12;11.82;;;3.33;;
29202;SDS011;16245;51.170;4.884;2023-02-24T10:43:39;12.57;;;3.58;;
29202;SDS011;16245;51.170;4.884;2023-02-24T10:46:17;13.63;;;3.38;;
29202;SDS011;16245;51.170;4.884;2023-02-24T10:48:56;15.00;;;3.03;;
29202;SDS011;16245;51.170;4.884;2023-02-24T10:51:28;13.88;;;4.22;;
29202;SDS011;16245;51.170;4.884;2023-02-24T10:54:18;11.73;;;3.40;;
29202;SDS011;16245;51.170;4.884;2023-02-24T10:57:07;19.42;;;4.10;;
29202;SDS011;16245;51.170;4.884;2023-02-24T11:00:00;17.33;;;3.90;;
29202;SDS011;16245;51.170;4.884;2023-02-24T11:02:47;12.68;;;3.60;;
29202;SDS011;16245;51.170;4.884;2023-02-24T11:05:41;10.68;;;3.35;;
29202;SDS011;16245;51.170;4.884;2023-02-24T11:08:16;12.63;;;3.67;;
29202;SDS011;16245;51.170;4.884;2023-02-24T11:11:08;15.90;;;3.83;;
29202;SDS011;16245;51.170;4.884;2023-02-24T11:13:46;9.30;;;3.50;;
29202;SDS011;16245;51.170;4.884;2023-02-24T11:19:28;13.65;;;4.47;;
29202;SDS011;16245;51.170;4.884;2023-02-24T11:21:56;11.10;;;3.63;;
29202;SDS011;16245;51.170;4.884;2023-02-24T11:24:24;10.35;;;4.05;;
29202;SDS011;16245;51.170;4.884;2023-02-24T11:26:50;15.85;;;3.80;;
29202;SDS011;16245;51.170;4.884;2023-02-24T11:29:23;14.07;;;4.20;;
29202;SDS011;16245;51.170;4.884;2023-02-24T11:32:15;13.77;;;3.80;;
29202;SDS011;16245;51.170;4.884;2023-02-24T11:35:08;13.68;;;4.13;;
29202;SDS011;16245;51.170;4.884;2023-02-24T11:42:57;11.48;;;3.92;;
29202;SDS011;16245;51.170;4.884;2023-02-24T11:50:42;10.50;;;3.67;;
29202;SDS011;16245;51.170;4.884;2023-02-24T11:53:26;11.80;;;5.18;;
29202;SDS011;16245;51.170;4.884;2023-02-24T11:56:42;14.32;;;5.75;;
29202;SDS011;16245;51.170;4.884;2023-02-24T11:58:52;20.00;;;4.88;;
29202;SDS011;16245;51.170;4.884;2023-02-24T12:04:16;12.15;;;4.93;;
29202;SDS011;16245;51.170;4.884;2023-02-24T12:07:00;11.50;;;4.75;;
29202;SDS011;16245;51.170;4.884;2023-02-24T12:12:18;11.23;;;5.38;;
29202;SDS011;16245;51.170;4.884;2023-02-24T12:14:59;11.18;;;4.03;;
29202;SDS011;16245;51.170;4.884;2023-02-24T12:17:36;13.88;;;4.72;;
29202;SDS011;16245;51.170;4.884;2023-02-24T12:20:36;20.27;;;5.28;;
29202;SDS011;16245;51.170;4.884;2023-02-24T12:23:30;15.32;;;4.60;;
29202;SDS011;16245;51.170;4.884;2023-02-24T12:39:25;18.10;;;7.55;;
29202;SDS011;16245;51.170;4.884;2023-02-24T12:47:13;14.23;;;7.18;;
29202;SDS011;16245;51.170;4.884;2023-02-24T12:49:57;18.52;;;7.45;;
29202;SDS011;16245;51.170;4.884;2023-02-24T13:16:31;17.92;;;7.35;;
29202;SDS011;16245;51.170;4.884;2023-02-24T13:21:31;20.85;;;8.15;;
29202;SDS011;16245;51.170;4.884;2023-02-24T13:23:58;25.33;;;7.32;;
29202;SDS011;16245;51.170;4.884;2023-02-24T13:26:26;17.15;;;7.10;;
29202;SDS011;16245;51.170;4.884;2023-02-24T13:29:01;15.52;;;7.03;;
29202;SDS011;16245;51.170;4.884;2023-02-24T13:31:49;19.67;;;6.97;;
29202;SDS011;16245;51.170;4.884;2023-02-24T13:36:56;17.10;;;7.50;;
29202;SDS011;16245;51.170;4.884;2023-02-24T13:39:44;17.50;;;7.57;;
29202;SDS011;16245;51.170;4.884;2023-02-24T13:42:22;19.95;;;6.97;;
29202;SDS011;16245;51.170;4.884;2023-02-24T13:50:35;12.55;;;7.03;;
29202;SDS011;16245;51.170;4.884;2023-02-24T14:01:58;15.82;;;7.85;;
29202;SDS011;16245;51.170;4.884;2023-02-24T14:04:29;13.75;;;8.10;;
29202;SDS011;16245;51.170;4.884;2023-02-24T14:07:04;11.63;;;8.23;;
29202;SDS011;16245;51.170;4.884;2023-02-24T14:09:44;16.80;;;8.93;;
29202;SDS011;16245;51.170;4.884;2023-02-24T14:12:16;19.77;;;9.60;;
29202;SDS011;16245;51.170;4.884;2023-02-24T14:14:51;14.73;;;9.73;;
29202;SDS011;16245;51.170;4.884;2023-02-24T14:17:22;15.27;;;11.10;;
29202;SDS011;16245;51.170;4.884;2023-02-24T14:19:53;15.60;;;10.77;;
29202;SDS011;16245;51.170;4.884;2023-02-24T14:22:30;15.52;;;11.15;;
29202;SDS011;16245;51.170;4.884;2023-02-24T14:25:01;22.83;;;12.68;;
29202;SDS011;16245;51.170;4.884;2023-02-24T14:27:28;20.20;;;11.57;;
29202;SDS011;16245;51.170;4.884;2023-02-24T14:29:54;16.38;;;11.07;;
29202;SDS011;16245;51.170;4.884;2023-02-24T14:32:24;16.30;;;11.23;;
29202;SDS011;16245;51.170;4.884;2023-02-24T14:34:51;20.30;;;12.60;;
29202;SDS011;16245;51.170;4.884;2023-02-24T14:37:21;20.85;;;12.80;;
29202;SDS011;16245;51.170;4.884;2023-02-24T14:39:57;23.15;;;14.02;;
29202;SDS011;16245;51.170;4.884;2023-02-24T14:42:25;19.13;;;13.65;;
29202;SDS011;16245;51.170;4.884;2023-02-24T14:44:53;21.73;;;14.95;;
29202;SDS011;16245;51.170;4.884;2023-02-24T14:47:23;21.15;;;15.35;;
29202;SDS011;16245;51.170;4.884;2023-02-24T14:49:58;19.77;;;15.05;;
29202;SDS011;16245;51.170;4.884;2023-02-24T14:55:14;22.17;;;16.38;;
29202;SDS011;16245;51.170;4.884;2023-02-24T15:00:16;23.40;;;15.93;;
29202;SDS011;16245;51.170;4.884;2023-02-24T15:05:41;23.45;;;17.25;;
29202;SDS011;16245;51.170;4.884;2023-02-24T15:08:54;23.50;;;17.50;;
29202;SDS011;16245;51.170;4.884;2023-02-24T15:10:58;28.45;;;18.65;;
29202;SDS011;16245;51.170;4.884;2023-02-24T15:13:36;25.45;;;18.92;;
29202;SDS011;16245;51.170;4.884;2023-02-24T15:16:24;23.40;;;17.73;;
29202;SDS011;16245;51.170;4.884;2023-02-24T15:21:56;27.20;;;20.02;;
29202;SDS011;16245;51.170;4.884;2023-02-24T15:24:32;28.50;;;19.70;;
29202;SDS011;16245;51.170;4.884;2023-02-24T15:27:00;28.27;;;19.67;;
29202;SDS011;16245;51.170;4.884;2023-02-24T15:29:42;26.92;;;20.60;;
29202;SDS011;16245;51.170;4.884;2023-02-24T15:32:20;25.80;;;19.08;;
29202;SDS011;16245;51.170;4.884;2023-02-24T15:34:49;24.70;;;20.02;;
29202;SDS011;16245;51.170;4.884;2023-02-24T15:37:37;22.35;;;17.98;;
29202;SDS011;16245;51.170;4.884;2023-02-24T15:40:16;23.95;;;18.05;;
29202;SDS011;16245;51.170;4.884;2023-02-24T15:42:55;22.15;;;17.13;;
29202;SDS011;16245;51.170;4.884;2023-02-24T15:45:30;25.83;;;17.15;;
29202;SDS011;16245;51.170;4.884;2023-02-24T15:47:58;22.48;;;17.10;;
29202;SDS011;16245;51.170;4.884;2023-02-24T15:50:25;24.40;;;18.10;;
29202;SDS011;16245;51.170;4.884;2023-02-24T15:52:54;26.13;;;18.00;;
29202;SDS011;16245;51.170;4.884;2023-02-24T15:55:27;25.42;;;18.85;;
29202;SDS011;16245;51.170;4.884;2023-02-24T15:57:57;24.98;;;18.85;;
29202;SDS011;16245;51.170;4.884;2023-02-24T16:00:25;25.08;;;17.42;;
29202;SDS011;16245;51.170;4.884;2023-02-24T16:02:52;25.17;;;17.40;;
29202;SDS011;16245;51.170;4.884;2023-02-24T16:05:17;25.25;;;16.95;;
29202;SDS011;16245;51.170;4.884;2023-02-24T16:07:44;26.50;;;14.77;;
29202;SDS011;16245;51.170;4.884;2023-02-24T16:10:44;24.20;;;15.63;;
29202;SDS011;16245;51.170;4.884;2023-02-24T16:13:03;22.13;;;14.90;;
29202;SDS011;16245;51.170;4.884;2023-02-24T16:15:30;28.23;;;14.88;;
29202;SDS011;16245;51.170;4.884;2023-02-24T16:17:59;25.38;;;12.85;;
29202;SDS011;16245;51.170;4.884;2023-02-24T16:20:29;20.00;;;12.82;;
29202;SDS011;16245;51.170;4.884;2023-02-24T16:22:58;17.50;;;8.77;;
29202;SDS011;16245;51.170;4.884;2023-02-24T16:25:26;26.13;;;7.72;;
29202;SDS011;16245;51.170;4.884;2023-02-24T16:27:54;17.35;;;6.38;;
29202;SDS011;16245;51.170;4.884;2023-02-24T16:30:24;13.93;;;5.30;;
29202;SDS011;16245;51.170;4.884;2023-02-24T16:32:51;15.27;;;4.65;;
29202;SDS011;16245;51.170;4.884;2023-02-24T16:35:17;11.98;;;5.35;;
29202;SDS011;16245;51.170;4.884;2023-02-24T16:37:44;15.68;;;4.60;;
29202;SDS011;16245;51.170;4.884;2023-02-24T16:40:24;19.50;;;4.57;;
29202;SDS011;16245;51.170;4.884;2023-02-24T16:42:54;14.32;;;3.88;;
29202;SDS011;16245;51.170;4.884;2023-02-24T16:45:19;14.27;;;4.20;;
29202;SDS011;16245;51.170;4.884;2023-02-24T16:47:48;17.13;;;4.35;;
29202;SDS011;16245;51.170;4.884;2023-02-24T16:50:21;15.98;;;4.57;;
29202;SDS011;16245;51.170;4.884;2023-02-24T16:52:54;21.23;;;4.40;;
29202;SDS011;16245;51.170;4.884;2023-02-24T16:55:20;13.32;;;3.15;;
29202;SDS011;16245;51.170;4.884;2023-02-24T16:57:46;14.48;;;3.05;;
29202;SDS011;16245;51.170;4.884;2023-02-24T17:00:13;18.25;;;3.60;;
29202;SDS011;16245;51.170;4.884;2023-02-24T17:02:40;14.25;;;3.78;;
29202;SDS011;16245;51.170;4.884;2023-02-24T17:05:14;22.38;;;4.55;;
29202;SDS011;16245;51.170;4.884;2023-02-24T17:07:43;17.67;;;3.53;;
29202;SDS011;16245;51.170;4.884;2023-02-24T17:10:10;15.60;;;3.53;;
29202;SDS011;16245;51.170;4.884;2023-02-24T17:12:36;17.05;;;4.53;;
29202;SDS011;16245;51.170;4.884;2023-02-24T17:15:01;19.13;;;4.25;;
29202;SDS011;16245;51.170;4.884;2023-02-24T17:17:27;18.15;;;3.58;;
29202;SDS011;16245;51.170;4.884;2023-02-24T17:19:53;24.70;;;4.25;;
29202;SDS011;16245;51.170;4.884;2023-02-24T17:22:18;17.23;;;4.07;;
29202;SDS011;16245;51.170;4.884;2023-02-24T17:24:46;15.02;;;3.65;;
29202;SDS011;16245;51.170;4.884;2023-02-24T17:27:12;18.98;;;3.55;;
29202;SDS011;16245;51.170;4.884;2023-02-24T17:29:38;18.20;;;4.32;;
29202;SDS011;16245;51.170;4.884;2023-02-24T17:32:04;18.08;;;4.35;;
29202;SDS011;16245;51.170;4.884;2023-02-24T17:34:29;20.85;;;3.72;;
29202;SDS011;16245;51.170;4.884;2023-02-24T17:36:55;19.42;;;3.58;;
29202;SDS011;16245;51.170;4.884;2023-02-24T17:39:21;13.30;;;3.38;;